MSC Divina — 3FFA5 — position and weather

sailwx.info

Track history (hours):
 
Tides and Currents Weather Stations Pressure Air Temp Water Temp Dewpoint Dewpoint Depression Visibility Wind Speed Wind Dir Waves Ship Positions

MSC Divina

Last reported at 2015-Sep-04 05:12 UTC. Time now 2015-Sep-04 16:34 UTC.
Position N 40°50' E 014°16'.

Length 333 m; draft 8.7 m.

Type: Passenger vessel. MMSI: 373178000.

Date/timePositionNaut miles runAvg speedWind from/ knotsBaromVisibWave heightAir tempDewpointWater temp
2015-Sep-04 05:12N 40°50' E 014°16'4 6.0
2015-Sep-04 04:33N 40°47' E 014°14'9 8.5
2015-Sep-04 03:33N 40°41' E 014°06'9 9.0
2015-Sep-04 02:33N 40°36' E 013°56'10 9.5
2015-Sep-04 01:33N 40°34' E 013°44'9 9.4
2015-Sep-04 00:33N 40°33' E 013°32'11 9.2
2015-Sep-03 23:24N 40°33' E 013°18'8 9.1
2015-Sep-03 22:33N 40°35' E 013°08'9 9.1
2015-Sep-03 21:33N 40°37' E 012°56'9 9.0
2015-Sep-03 20:33N 40°40' E 012°45'1514.4
2015-Sep-03 19:33N 40°44' E 012°27'1817.8
2015-Sep-03 18:31N 40°49' E 012°03'40018.1
2015-Sep-02 20:26N 41°16' E 003°15'1617.7
2015-Sep-02 19:33N 41°16' E 002°54'1817.8
2015-Sep-02 18:32N 41°16' E 002°30'14 1.1
2015-Sep-02 06:06N 41°14' E 002°11'813.7
2015-Sep-02 05:32N 41°07' E 002°11'1414.5
2015-Sep-02 04:33N 40°52' E 002°12'1716.6
2015-Sep-02 03:33N 40°36' E 002°13'1818.0
2015-Sep-02 02:33N 40°18' E 002°13'1818.0
2015-Sep-02 01:33N 39°60' E 002°14'1818.1
2015-Sep-02 00:33N 39°42' E 002°15'1716.8
2015-Sep-01 23:33N 39°27' E 002°26'1111.2
2015-Sep-01 22:33N 39°33' E 002°38'0 0.0
2015-Sep-01 21:32N 39°33' E 002°38'0 0.0
2015-Sep-01 20:33N 39°33' E 002°38'0 0.0
2015-Sep-01 19:32N 39°33' E 002°38'0 0.0
2015-Sep-01 18:31N 39°33' E 002°38'0 0.0
2015-Sep-01 17:31N 39°33' E 002°38'0 0.0
2015-Sep-01 16:31N 39°33' E 002°38'0 0.0
2015-Sep-01 15:31N 39°33' E 002°38'0 0.0
2015-Sep-01 14:33N 39°33' E 002°38'0 0.0
2015-Sep-01 13:33N 39°33' E 002°38'0 0.0
2015-Sep-01 12:33N 39°33' E 002°38'0 0.4
2015-Sep-01 11:33N 39°33' E 002°39'1212.1
2015-Sep-01 10:33N 39°26' E 002°26'1313.3
2015-Sep-01 09:33N 39°38' E 002°18'1717.4
2015-Sep-01 08:33N 39°51' E 002°33'1918.0
2015-Sep-01 07:31N 40°04' E 002°50'1717.8
2015-Sep-01 06:33N 40°16' E 003°06'1817.8
2015-Sep-01 05:33N 40°29' E 003°22'12617.6
2015-Aug-31 22:21N 42°00' E 005°19'1417.3
2015-Aug-31 21:34N 42°10' E 005°32'1817.6
2015-Aug-31 20:33N 42°24' E 005°47'1717.5
2015-Aug-31 19:33N 42°36' E 006°04'2218.3
2015-Aug-31 18:22N 42°51' E 006°26'1518.7
2015-Aug-31 17:33N 43°02' E 006°40'1818.3
2015-Aug-31 16:33N 43°17' E 006°53'1615.8
2015-Aug-31 15:33N 43°32' E 007°01'0 0.3
2015-Aug-31 14:28N 43°32' E 007°01'0 0.0
2015-Aug-31 13:28N 43°32' E 007°01'0 0.0
2015-Aug-31 12:28N 43°32' E 007°01'0 0.0
2015-Aug-31 11:22N 43°32' E 007°01'0 0.0
2015-Aug-31 10:22N 43°32' E 007°01'0 0.0
2015-Aug-31 09:28N 43°32' E 007°01'0 0.0
2015-Aug-31 08:32N 43°32' E 007°01'0 0.0
2015-Aug-31 07:33N 43°32' E 007°01'0 0.0
2015-Aug-31 06:33N 43°32' E 007°01'3 3.1
2015-Aug-31 05:33N 43°29' E 007°01'1414.0
2015-Aug-31 04:33N 43°30' E 007°21'1615.6
2015-Aug-31 03:33N 43°31' E 007°42'1818.6
2015-Aug-31 02:34N 43°35' E 008°07'1818.5
2015-Aug-31 01:33N 43°40' E 008°32'1818.3
2015-Aug-31 00:33N 43°46' E 008°56'1818.3
2015-Aug-30 23:34N 43°51' E 009°20'1818.2
2015-Aug-30 22:34N 43°58' E 009°44'1010.0
2015-Aug-30 21:33N 44°06' E 009°50'0 0.1
2015-Aug-30 20:23N 44°06' E 009°50'0 0.0
2015-Aug-30 19:29N 44°06' E 009°50'0 0.0
2015-Aug-30 18:29N 44°06' E 009°50'0 0.0
2015-Aug-30 17:29N 44°06' E 009°50'0 0.0
2015-Aug-30 16:29N 44°06' E 009°50'0 0.0
2015-Aug-30 15:23N 44°06' E 009°50'0 0.0
2015-Aug-30 14:31N 44°06' E 009°50'0 0.0
2015-Aug-30 13:31N 44°06' E 009°50'0 0.0
2015-Aug-30 12:31N 44°06' E 009°50'0 0.0
2015-Aug-30 11:33N 44°06' E 009°50'0 0.0
2015-Aug-30 10:33N 44°06' E 009°50'0 0.0
2015-Aug-30 09:29N 44°06' E 009°50'0 0.0
2015-Aug-30 08:33N 44°06' E 009°50'0 0.0
2015-Aug-30 07:27N 44°06' E 009°50'0 0.0
2015-Aug-30 06:26N 44°06' E 009°50'0 0.0
2015-Aug-30 05:32N 44°06' E 009°50'2 2.3
2015-Aug-30 04:33N 44°04' E 009°51'10 9.7
2015-Aug-30 03:33N 43°55' E 009°55'10 9.8
2015-Aug-30 02:33N 43°46' E 009°51'1010.0
2015-Aug-30 01:33N 43°36' E 009°46'1919.0
2015-Aug-30 00:33N 43°18' E 009°39'1919.0
2015-Aug-29 23:33N 42°59' E 009°40'1818.2
2015-Aug-29 22:33N 42°46' E 009°58'3618.1
2015-Aug-29 20:33N 42°23' E 010°35'2018.4
2015-Aug-29 19:28N 42°10' E 010°57'1717.6
2015-Aug-29 18:31N 42°06' E 011°19'21 3.5
2015-Aug-29 12:32N 42°06' E 011°47'0 0.0
2015-Aug-29 11:32N 42°06' E 011°47'0 0.0
2015-Aug-29 10:32N 42°06' E 011°47'73 6.5
2015-Aug-28 23:17N 40°58' E 012°25'1317.5
2015-Aug-28 22:33N 40°47' E 012°34'1816.8
2015-Aug-28 21:30N 40°38' E 012°54'1917.8
2015-Aug-28 20:27N 40°33' E 013°18'1617.5
2015-Aug-28 19:33N 40°33' E 013°38'1717.3
2015-Aug-28 18:33N 40°37' E 014°01'1717.2
2015-Aug-28 17:34N 40°49' E 014°17'1 0.1
2015-Aug-28 05:18N 40°50' E 014°16'4 5.5
2015-Aug-28 04:33N 40°46' E 014°14'9 9.3
2015-Aug-28 03:33N 40°40' E 014°05'9 8.9
2015-Aug-28 02:33N 40°36' E 013°55'10 9.2
2015-Aug-28 01:28N 40°34' E 013°42'8 9.1
2015-Aug-28 00:33N 40°33' E 013°31'11 8.9
2015-Aug-27 23:22N 40°33' E 013°17'3110.8
2015-Aug-27 20:28N 40°42' E 012°38'14618.2
2015-Aug-27 12:26N 41°23' E 009°32'20817.5
2015-Aug-27 00:33N 41°17' E 004°55'5517.7
2015-Aug-26 21:27N 41°16' E 003°42'1617.9
2015-Aug-26 20:33N 41°16' E 003°21'1818.4
2015-Aug-26 19:33N 41°16' E 002°56'1818.0
2015-Aug-26 18:33N 41°16' E 002°32'1616.3
2015-Aug-26 17:33N 41°18' E 002°11'4 3.0
2015-Aug-26 16:18N 41°22' E 002°11'0 0.0
2015-Aug-26 13:23N 41°22' E 002°11'0 0.0
2015-Aug-26 10:17N 41°22' E 002°11'0 0.0
2015-Aug-26 09:29N 41°22' E 002°11'0 0.0
2015-Aug-26 08:23N 41°22' E 002°11'0 0.0
2015-Aug-26 07:32N 41°22' E 002°11'3 2.6
2015-Aug-26 06:34N 41°19' E 002°10'1413.5
2015-Aug-26 05:33N 41°05' E 002°12'1414.1
2015-Aug-26 04:33N 40°51' E 002°12'1414.6
2015-Aug-26 03:33N 40°37' E 002°13'1818.1
2015-Aug-26 02:33N 40°19' E 002°14'1818.2
2015-Aug-26 01:33N 40°01' E 002°14'1818.1
2015-Aug-26 00:33N 39°42' E 002°15'1716.7
2015-Aug-25 23:33N 39°28' E 002°25'1211.8
2015-Aug-25 22:33N 39°33' E 002°38'0 0.0
2015-Aug-25 21:33N 39°33' E 002°38'0 0.0
2015-Aug-25 20:33N 39°33' E 002°38'0 0.0
2015-Aug-25 19:33N 39°33' E 002°38'0 0.0
2015-Aug-25 18:32N 39°33' E 002°38'0 0.0
2015-Aug-25 17:32N 39°33' E 002°38'0 0.0
2015-Aug-25 16:32N 39°33' E 002°38'0 0.0
2015-Aug-25 15:32N 39°33' E 002°38'0 0.0
2015-Aug-25 14:31N 39°33' E 002°38'0 0.0
2015-Aug-25 13:33N 39°33' E 002°38'0 0.0
2015-Aug-25 12:32N 39°33' E 002°38'1 0.5
2015-Aug-25 11:33N 39°33' E 002°39'1312.7
2015-Aug-25 10:33N 39°27' E 002°24'1413.5
2015-Aug-25 09:33N 39°41' E 002°20'1817.7
2015-Aug-25 08:33N 39°55' E 002°33'1818.0
2015-Aug-25 07:33N 40°09' E 002°48'1818.3
2015-Aug-25 06:33N 40°24' E 003°02'1818.4
2015-Aug-25 05:33N 40°38' E 003°17'  
Track history (hours):
 
Tides and Currents Weather Stations Pressure Air Temp Water Temp Dewpoint Dewpoint Depression Visibility Wind Speed Wind Dir Waves Ship Positions

MSC Divina

Last reported at 2015-Sep-04 05:12 UTC. Time now 2015-Sep-04 16:34 UTC.
Position N 40°50' E 014°16'.

Length 333 m; draft 8.7 m.

Type: Passenger vessel. MMSI: 373178000.

Date/timePositionNaut miles runAvg speedWind from/ knotsBaromVisibWave heightAir tempDewpointWater temp
2015-Sep-04 05:12N 40°50' E 014°16'4 6.0
2015-Sep-04 04:33N 40°47' E 014°14'9 8.5
2015-Sep-04 03:33N 40°41' E 014°06'9 9.0
2015-Sep-04 02:33N 40°36' E 013°56'10 9.5
2015-Sep-04 01:33N 40°34' E 013°44'9 9.4
2015-Sep-04 00:33N 40°33' E 013°32'11 9.2
2015-Sep-03 23:24N 40°33' E 013°18'8 9.1
2015-Sep-03 22:33N 40°35' E 013°08'9 9.1
2015-Sep-03 21:33N 40°37' E 012°56'9 9.0
2015-Sep-03 20:33N 40°40' E 012°45'1514.4
2015-Sep-03 19:33N 40°44' E 012°27'1817.8
2015-Sep-03 18:31N 40°49' E 012°03'40018.1
2015-Sep-02 20:26N 41°16' E 003°15'1617.7
2015-Sep-02 19:33N 41°16' E 002°54'1817.8
2015-Sep-02 18:32N 41°16' E 002°30'14 1.1
2015-Sep-02 06:06N 41°14' E 002°11'813.7
2015-Sep-02 05:32N 41°07' E 002°11'1414.5
2015-Sep-02 04:33N 40°52' E 002°12'1716.6
2015-Sep-02 03:33N 40°36' E 002°13'1818.0
2015-Sep-02 02:33N 40°18' E 002°13'1818.0
2015-Sep-02 01:33N 39°60' E 002°14'1818.1
2015-Sep-02 00:33N 39°42' E 002°15'1716.8
2015-Sep-01 23:33N 39°27' E 002°26'1111.2
2015-Sep-01 22:33N 39°33' E 002°38'0 0.0
2015-Sep-01 21:32N 39°33' E 002°38'0 0.0
2015-Sep-01 20:33N 39°33' E 002°38'0 0.0
2015-Sep-01 19:32N 39°33' E 002°38'0 0.0
2015-Sep-01 18:31N 39°33' E 002°38'0 0.0
2015-Sep-01 17:31N 39°33' E 002°38'0 0.0
2015-Sep-01 16:31N 39°33' E 002°38'0 0.0
2015-Sep-01 15:31N 39°33' E 002°38'0 0.0
2015-Sep-01 14:33N 39°33' E 002°38'0 0.0
2015-Sep-01 13:33N 39°33' E 002°38'0 0.0
2015-Sep-01 12:33N 39°33' E 002°38'0 0.4
2015-Sep-01 11:33N 39°33' E 002°39'1212.1
2015-Sep-01 10:33N 39°26' E 002°26'1313.3
2015-Sep-01 09:33N 39°38' E 002°18'1717.4
2015-Sep-01 08:33N 39°51' E 002°33'1918.0
2015-Sep-01 07:31N 40°04' E 002°50'1717.8
2015-Sep-01 06:33N 40°16' E 003°06'1817.8
2015-Sep-01 05:33N 40°29' E 003°22'12617.6
2015-Aug-31 22:21N 42°00' E 005°19'1417.3
2015-Aug-31 21:34N 42°10' E 005°32'1817.6
2015-Aug-31 20:33N 42°24' E 005°47'1717.5
2015-Aug-31 19:33N 42°36' E 006°04'2218.3
2015-Aug-31 18:22N 42°51' E 006°26'1518.7
2015-Aug-31 17:33N 43°02' E 006°40'1818.3
2015-Aug-31 16:33N 43°17' E 006°53'1615.8
2015-Aug-31 15:33N 43°32' E 007°01'0 0.3
2015-Aug-31 14:28N 43°32' E 007°01'0 0.0
2015-Aug-31 13:28N 43°32' E 007°01'0 0.0
2015-Aug-31 12:28N 43°32' E 007°01'0 0.0
2015-Aug-31 11:22N 43°32' E 007°01'0 0.0
2015-Aug-31 10:22N 43°32' E 007°01'0 0.0
2015-Aug-31 09:28N 43°32' E 007°01'0 0.0
2015-Aug-31 08:32N 43°32' E 007°01'0 0.0
2015-Aug-31 07:33N 43°32' E 007°01'0 0.0
2015-Aug-31 06:33N 43°32' E 007°01'3 3.1
2015-Aug-31 05:33N 43°29' E 007°01'1414.0
2015-Aug-31 04:33N 43°30' E 007°21'1615.6
2015-Aug-31 03:33N 43°31' E 007°42'1818.6
2015-Aug-31 02:34N 43°35' E 008°07'1818.5
2015-Aug-31 01:33N 43°40' E 008°32'1818.3
2015-Aug-31 00:33N 43°46' E 008°56'1818.3
2015-Aug-30 23:34N 43°51' E 009°20'1818.2
2015-Aug-30 22:34N 43°58' E 009°44'1010.0
2015-Aug-30 21:33N 44°06' E 009°50'0 0.1
2015-Aug-30 20:23N 44°06' E 009°50'0 0.0
2015-Aug-30 19:29N 44°06' E 009°50'0 0.0
2015-Aug-30 18:29N 44°06' E 009°50'0 0.0
2015-Aug-30 17:29N 44°06' E 009°50'0 0.0
2015-Aug-30 16:29N 44°06' E 009°50'0 0.0
2015-Aug-30 15:23N 44°06' E 009°50'0 0.0
2015-Aug-30 14:31N 44°06' E 009°50'0 0.0
2015-Aug-30 13:31N 44°06' E 009°50'0 0.0
2015-Aug-30 12:31N 44°06' E 009°50'0 0.0
2015-Aug-30 11:33N 44°06' E 009°50'0 0.0
2015-Aug-30 10:33N 44°06' E 009°50'0 0.0
2015-Aug-30 09:29N 44°06' E 009°50'0 0.0
2015-Aug-30 08:33N 44°06' E 009°50'0 0.0
2015-Aug-30 07:27N 44°06' E 009°50'0 0.0
2015-Aug-30 06:26N 44°06' E 009°50'0 0.0
2015-Aug-30 05:32N 44°06' E 009°50'2 2.3
2015-Aug-30 04:33N 44°04' E 009°51'10 9.7
2015-Aug-30 03:33N 43°55' E 009°55'10 9.8
2015-Aug-30 02:33N 43°46' E 009°51'1010.0
2015-Aug-30 01:33N 43°36' E 009°46'1919.0
2015-Aug-30 00:33N 43°18' E 009°39'1919.0
2015-Aug-29 23:33N 42°59' E 009°40'1818.2
2015-Aug-29 22:33N 42°46' E 009°58'3618.1
2015-Aug-29 20:33N 42°23' E 010°35'2018.4
2015-Aug-29 19:28N 42°10' E 010°57'1717.6
2015-Aug-29 18:31N 42°06' E 011°19'21 3.5
2015-Aug-29 12:32N 42°06' E 011°47'0 0.0
2015-Aug-29 11:32N 42°06' E 011°47'0 0.0
2015-Aug-29 10:32N 42°06' E 011°47'73 6.5
2015-Aug-28 23:17N 40°58' E 012°25'1317.5
2015-Aug-28 22:33N 40°47' E 012°34'1816.8
2015-Aug-28 21:30N 40°38' E 012°54'1917.8
2015-Aug-28 20:27N 40°33' E 013°18'1617.5
2015-Aug-28 19:33N 40°33' E 013°38'1717.3
2015-Aug-28 18:33N 40°37' E 014°01'1717.2
2015-Aug-28 17:34N 40°49' E 014°17'1 0.1
2015-Aug-28 05:18N 40°50' E 014°16'4 5.5
2015-Aug-28 04:33N 40°46' E 014°14'9 9.3
2015-Aug-28 03:33N 40°40' E 014°05'9 8.9
2015-Aug-28 02:33N 40°36' E 013°55'10 9.2
2015-Aug-28 01:28N 40°34' E 013°42'8 9.1
2015-Aug-28 00:33N 40°33' E 013°31'11 8.9
2015-Aug-27 23:22N 40°33' E 013°17'3110.8
2015-Aug-27 20:28N 40°42' E 012°38'14618.2
2015-Aug-27 12:26N 41°23' E 009°32'20817.5
2015-Aug-27 00:33N 41°17' E 004°55'5517.7
2015-Aug-26 21:27N 41°16' E 003°42'1617.9
2015-Aug-26 20:33N 41°16' E 003°21'1818.4
2015-Aug-26 19:33N 41°16' E 002°56'1818.0
2015-Aug-26 18:33N 41°16' E 002°32'1616.3
2015-Aug-26 17:33N 41°18' E 002°11'4 3.0
2015-Aug-26 16:18N 41°22' E 002°11'0 0.0
2015-Aug-26 13:23N 41°22' E 002°11'0 0.0
2015-Aug-26 10:17N 41°22' E 002°11'0 0.0
2015-Aug-26 09:29N 41°22' E 002°11'0 0.0
2015-Aug-26 08:23N 41°22' E 002°11'0 0.0
2015-Aug-26 07:32N 41°22' E 002°11'3 2.6
2015-Aug-26 06:34N 41°19' E 002°10'1413.5
2015-Aug-26 05:33N 41°05' E 002°12'1414.1
2015-Aug-26 04:33N 40°51' E 002°12'1414.6
2015-Aug-26 03:33N 40°37' E 002°13'1818.1
2015-Aug-26 02:33N 40°19' E 002°14'1818.2
2015-Aug-26 01:33N 40°01' E 002°14'1818.1
2015-Aug-26 00:33N 39°42' E 002°15'1716.7
2015-Aug-25 23:33N 39°28' E 002°25'1211.8
2015-Aug-25 22:33N 39°33' E 002°38'0 0.0
2015-Aug-25 21:33N 39°33' E 002°38'0 0.0
2015-Aug-25 20:33N 39°33' E 002°38'0 0.0
2015-Aug-25 19:33N 39°33' E 002°38'0 0.0
2015-Aug-25 18:32N 39°33' E 002°38'0 0.0
2015-Aug-25 17:32N 39°33' E 002°38'0 0.0
2015-Aug-25 16:32N 39°33' E 002°38'0 0.0
2015-Aug-25 15:32N 39°33' E 002°38'0 0.0
2015-Aug-25 14:31N 39°33' E 002°38'0 0.0
2015-Aug-25 13:33N 39°33' E 002°38'0 0.0
2015-Aug-25 12:32N 39°33' E 002°38'1 0.5
2015-Aug-25 11:33N 39°33' E 002°39'1312.7
2015-Aug-25 10:33N 39°27' E 002°24'1413.5
2015-Aug-25 09:33N 39°41' E 002°20'1817.7
2015-Aug-25 08:33N 39°55' E 002°33'1818.0
2015-Aug-25 07:33N 40°09' E 002°48'1818.3
2015-Aug-25 06:33N 40°24' E 003°02'1818.4
2015-Aug-25 05:33N 40°38' E 003°17'  

Dump ship's entire track history